sensor_id;sensor_type;location;lat;lon;timestamp;temperature;humidity
8832;DHT22;4452;50.756;4.472;2023-12-20T00:02:19;6.70;99.90
8832;DHT22;4452;50.756;4.472;2023-12-20T00:04:45;6.60;99.90
8832;DHT22;4452;50.756;4.472;2023-12-20T00:07:11;6.60;99.90
8832;DHT22;4452;50.756;4.472;2023-12-20T00:09:36;6.50;99.90
8832;DHT22;4452;50.756;4.472;2023-12-20T00:12:02;6.50;99.90
8832;DHT22;4452;50.756;4.472;2023-12-20T00:14:28;6.60;99.90
8832;DHT22;4452;50.756;4.472;2023-12-20T00:16:54;6.60;99.90
8832;DHT22;4452;50.756;4.472;2023-12-20T00:19:19;6.60;99.90
8832;DHT22;4452;50.756;4.472;2023-12-20T00:21:45;6.60;99.90
8832;DHT22;4452;50.756;4.472;2023-12-20T00:24:11;6.70;99.90
8832;DHT22;4452;50.756;4.472;2023-12-20T00:26:37;6.70;99.90
8832;DHT22;4452;50.756;4.472;2023-12-20T00:29:02;6.70;99.90
8832;DHT22;4452;50.756;4.472;2023-12-20T00:31:28;6.70;99.90
8832;DHT22;4452;50.756;4.472;2023-12-20T00:33:54;6.60;99.90
8832;DHT22;4452;50.756;4.472;2023-12-20T00:36:20;6.60;99.90
8832;DHT22;4452;50.756;4.472;2023-12-20T00:38:46;6.50;99.90
8832;DHT22;4452;50.756;4.472;2023-12-20T00:41:11;6.50;99.90
8832;DHT22;4452;50.756;4.472;2023-12-20T00:43:37;6.50;99.90
8832;DHT22;4452;50.756;4.472;2023-12-20T00:46:03;6.50;99.90
8832;DHT22;4452;50.756;4.472;2023-12-20T00:48:29;6.50;99.90
8832;DHT22;4452;50.756;4.472;2023-12-20T00:50:57;6.50;99.90
8832;DHT22;4452;50.756;4.472;2023-12-20T00:53:23;6.40;99.90
8832;DHT22;4452;50.756;4.472;2023-12-20T00:55:48;6.50;99.90
8832;DHT22;4452;50.756;4.472;2023-12-20T00:58:15;6.40;99.90
8832;DHT22;4452;50.756;4.472;2023-12-20T01:00:41;6.40;99.90
8832;DHT22;4452;50.756;4.472;2023-12-20T01:03:09;6.40;99.90
8832;DHT22;4452;50.756;4.472;2023-12-20T01:05:35;6.40;99.90
8832;DHT22;4452;50.756;4.472;2023-12-20T01:08:01;6.30;99.90
8832;DHT22;4452;50.756;4.472;2023-12-20T01:10:28;6.40;99.90
8832;DHT22;4452;50.756;4.472;2023-12-20T01:12:55;6.40;99.90
8832;DHT22;4452;50.756;4.472;2023-12-20T01:15:20;6.30;99.90
8832;DHT22;4452;50.756;4.472;2023-12-20T01:17:46;6.30;99.90
8832;DHT22;4452;50.756;4.472;2023-12-20T01:20:13;6.30;99.90
8832;DHT22;4452;50.756;4.472;2023-12-20T01:22:39;6.20;99.90
8832;DHT22;4452;50.756;4.472;2023-12-20T01:25:05;6.20;99.90
8832;DHT22;4452;50.756;4.472;2023-12-20T01:27:31;6.10;99.90
8832;DHT22;4452;50.756;4.472;2023-12-20T01:29:57;6.10;99.90
8832;DHT22;4452;50.756;4.472;2023-12-20T01:32:22;6.20;99.90
8832;DHT22;4452;50.756;4.472;2023-12-20T01:34:48;6.00;99.90
8832;DHT22;4452;50.756;4.472;2023-12-20T01:37:14;6.10;99.90
8832;DHT22;4452;50.756;4.472;2023-12-20T01:39:40;6.10;99.90
8832;DHT22;4452;50.756;4.472;2023-12-20T01:42:05;6.10;99.90
8832;DHT22;4452;50.756;4.472;2023-12-20T01:44:31;6.10;99.90
8832;DHT22;4452;50.756;4.472;2023-12-20T01:46:57;6.00;99.90
8832;DHT22;4452;50.756;4.472;2023-12-20T01:49:23;6.00;99.90
8832;DHT22;4452;50.756;4.472;2023-12-20T01:51:50;6.00;99.90
8832;DHT22;4452;50.756;4.472;2023-12-20T01:54:16;6.00;99.90
8832;DHT22;4452;50.756;4.472;2023-12-20T01:56:42;6.00;99.90
8832;DHT22;4452;50.756;4.472;2023-12-20T01:59:09;6.10;99.90
8832;DHT22;4452;50.756;4.472;2023-12-20T02:01:35;6.10;99.90
8832;DHT22;4452;50.756;4.472;2023-12-20T02:04:01;6.10;99.90
8832;DHT22;4452;50.756;4.472;2023-12-20T02:06:30;6.00;99.90
8832;DHT22;4452;50.756;4.472;2023-12-20T02:08:59;6.00;99.90
8832;DHT22;4452;50.756;4.472;2023-12-20T02:11:25;6.00;99.90
8832;DHT22;4452;50.756;4.472;2023-12-20T02:13:52;6.00;99.90
8832;DHT22;4452;50.756;4.472;2023-12-20T02:16:18;6.00;99.90
8832;DHT22;4452;50.756;4.472;2023-12-20T02:18:44;6.00;99.90
8832;DHT22;4452;50.756;4.472;2023-12-20T02:21:10;6.10;99.90
8832;DHT22;4452;50.756;4.472;2023-12-20T02:23:36;6.00;99.90
8832;DHT22;4452;50.756;4.472;2023-12-20T02:26:03;6.00;99.90
8832;DHT22;4452;50.756;4.472;2023-12-20T02:28:30;5.90;99.90
8832;DHT22;4452;50.756;4.472;2023-12-20T02:30:57;5.90;99.90
8832;DHT22;4452;50.756;4.472;2023-12-20T02:33:23;6.00;99.90
8832;DHT22;4452;50.756;4.472;2023-12-20T02:35:48;6.00;99.90
8832;DHT22;4452;50.756;4.472;2023-12-20T02:38:14;5.80;99.90
8832;DHT22;4452;50.756;4.472;2023-12-20T02:40:40;5.90;99.90
8832;DHT22;4452;50.756;4.472;2023-12-20T02:43:05;5.80;99.90
8832;DHT22;4452;50.756;4.472;2023-12-20T02:45:31;5.80;99.90
8832;DHT22;4452;50.756;4.472;2023-12-20T02:47:57;5.80;99.90
8832;DHT22;4452;50.756;4.472;2023-12-20T02:50:24;5.80;99.90
8832;DHT22;4452;50.756;4.472;2023-12-20T02:52:50;5.80;99.90
8832;DHT22;4452;50.756;4.472;2023-12-20T02:55:15;5.80;99.90
8832;DHT22;4452;50.756;4.472;2023-12-20T02:57:41;5.80;99.90
8832;DHT22;4452;50.756;4.472;2023-12-20T03:00:10;5.80;99.90
8832;DHT22;4452;50.756;4.472;2023-12-20T03:02:36;5.80;99.90
8832;DHT22;4452;50.756;4.472;2023-12-20T03:05:03;5.90;99.90
8832;DHT22;4452;50.756;4.472;2023-12-20T03:07:29;5.90;99.90
8832;DHT22;4452;50.756;4.472;2023-12-20T03:09:54;5.90;99.90
8832;DHT22;4452;50.756;4.472;2023-12-20T03:12:20;5.90;99.90
8832;DHT22;4452;50.756;4.472;2023-12-20T03:14:46;5.90;99.90
8832;DHT22;4452;50.756;4.472;2023-12-20T03:17:11;5.90;99.90
8832;DHT22;4452;50.756;4.472;2023-12-20T03:19:37;5.90;99.90
8832;DHT22;4452;50.756;4.472;2023-12-20T03:22:03;6.00;99.90
8832;DHT22;4452;50.756;4.472;2023-12-20T03:24:29;6.00;99.90
8832;DHT22;4452;50.756;4.472;2023-12-20T03:26:55;6.00;99.90
8832;DHT22;4452;50.756;4.472;2023-12-20T03:29:20;6.00;99.90
8832;DHT22;4452;50.756;4.472;2023-12-20T03:31:46;6.00;99.90
8832;DHT22;4452;50.756;4.472;2023-12-20T03:34:12;6.10;99.90
8832;DHT22;4452;50.756;4.472;2023-12-20T03:36:37;6.10;99.90
8832;DHT22;4452;50.756;4.472;2023-12-20T03:39:04;6.10;99.90
8832;DHT22;4452;50.756;4.472;2023-12-20T03:41:30;6.10;99.90
8832;DHT22;4452;50.756;4.472;2023-12-20T03:43:56;6.10;99.90
8832;DHT22;4452;50.756;4.472;2023-12-20T03:46:22;6.10;99.90
8832;DHT22;4452;50.756;4.472;2023-12-20T03:48:47;6.10;99.90
8832;DHT22;4452;50.756;4.472;2023-12-20T03:51:13;6.10;99.90
8832;DHT22;4452;50.756;4.472;2023-12-20T03:53:39;6.10;99.90
8832;DHT22;4452;50.756;4.472;2023-12-20T03:56:06;6.10;99.90
8832;DHT22;4452;50.756;4.472;2023-12-20T03:58:32;6.10;99.90
8832;DHT22;4452;50.756;4.472;2023-12-20T04:00:57;6.10;99.90
8832;DHT22;4452;50.756;4.472;2023-12-20T04:03:23;6.00;99.90
8832;DHT22;4452;50.756;4.472;2023-12-20T04:05:49;6.00;99.90
8832;DHT22;4452;50.756;4.472;2023-12-20T04:08:14;6.00;99.90
8832;DHT22;4452;50.756;4.472;2023-12-20T04:10:40;6.00;99.90
8832;DHT22;4452;50.756;4.472;2023-12-20T04:13:06;6.00;99.90
8832;DHT22;4452;50.756;4.472;2023-12-20T04:15:31;6.00;99.90
8832;DHT22;4452;50.756;4.472;2023-12-20T04:17:57;6.10;99.90
8832;DHT22;4452;50.756;4.472;2023-12-20T04:20:23;6.10;99.90
8832;DHT22;4452;50.756;4.472;2023-12-20T04:22:49;6.10;99.90
8832;DHT22;4452;50.756;4.472;2023-12-20T04:25:14;6.10;99.90
8832;DHT22;4452;50.756;4.472;2023-12-20T04:27:40;6.10;99.90
8832;DHT22;4452;50.756;4.472;2023-12-20T04:30:07;6.10;99.90
8832;DHT22;4452;50.756;4.472;2023-12-20T04:32:33;6.10;99.90
8832;DHT22;4452;50.756;4.472;2023-12-20T04:34:59;6.10;99.90
8832;DHT22;4452;50.756;4.472;2023-12-20T04:37:25;6.00;99.90
8832;DHT22;4452;50.756;4.472;2023-12-20T04:39:50;6.00;99.90
8832;DHT22;4452;50.756;4.472;2023-12-20T04:42:16;6.00;99.90
8832;DHT22;4452;50.756;4.472;2023-12-20T04:44:42;6.00;99.90
8832;DHT22;4452;50.756;4.472;2023-12-20T04:47:09;6.10;99.90
8832;DHT22;4452;50.756;4.472;2023-12-20T04:49:35;6.00;99.90
8832;DHT22;4452;50.756;4.472;2023-12-20T04:52:00;6.00;99.90
8832;DHT22;4452;50.756;4.472;2023-12-20T04:54:26;6.00;99.90
8832;DHT22;4452;50.756;4.472;2023-12-20T04:56:52;6.00;99.90
8832;DHT22;4452;50.756;4.472;2023-12-20T04:59:18;6.00;99.90
8832;DHT22;4452;50.756;4.472;2023-12-20T05:01:43;6.00;99.90
8832;DHT22;4452;50.756;4.472;2023-12-20T05:04:09;6.00;99.90
8832;DHT22;4452;50.756;4.472;2023-12-20T05:06:35;6.00;99.90
8832;DHT22;4452;50.756;4.472;2023-12-20T05:09:00;6.10;99.90
8832;DHT22;4452;50.756;4.472;2023-12-20T05:11:26;6.10;99.90
8832;DHT22;4452;50.756;4.472;2023-12-20T05:13:52;6.00;99.90
8832;DHT22;4452;50.756;4.472;2023-12-20T05:16:18;6.00;99.90
8832;DHT22;4452;50.756;4.472;2023-12-20T05:18:45;6.00;99.90
8832;DHT22;4452;50.756;4.472;2023-12-20T05:21:11;6.00;99.90
8832;DHT22;4452;50.756;4.472;2023-12-20T05:23:36;6.00;99.90
8832;DHT22;4452;50.756;4.472;2023-12-20T05:26:02;6.10;99.90
8832;DHT22;4452;50.756;4.472;2023-12-20T05:28:28;6.10;99.90
8832;DHT22;4452;50.756;4.472;2023-12-20T05:30:54;6.10;99.90
8832;DHT22;4452;50.756;4.472;2023-12-20T05:33:19;6.10;99.90
8832;DHT22;4452;50.756;4.472;2023-12-20T05:35:45;6.00;99.90
8832;DHT22;4452;50.756;4.472;2023-12-20T05:38:11;5.90;99.90
8832;DHT22;4452;50.756;4.472;2023-12-20T05:40:37;5.90;99.90
8832;DHT22;4452;50.756;4.472;2023-12-20T05:43:03;5.80;99.90
8832;DHT22;4452;50.756;4.472;2023-12-20T05:45:28;5.80;99.90
8832;DHT22;4452;50.756;4.472;2023-12-20T05:47:55;5.80;99.90
8832;DHT22;4452;50.756;4.472;2023-12-20T05:50:20;5.80;99.90
8832;DHT22;4452;50.756;4.472;2023-12-20T05:52:47;5.80;99.90
8832;DHT22;4452;50.756;4.472;2023-12-20T05:55:13;5.70;99.90
8832;DHT22;4452;50.756;4.472;2023-12-20T05:57:39;5.70;99.90
8832;DHT22;4452;50.756;4.472;2023-12-20T06:00:05;5.80;99.90
8832;DHT22;4452;50.756;4.472;2023-12-20T06:02:31;5.70;99.90
8832;DHT22;4452;50.756;4.472;2023-12-20T06:04:59;5.60;99.90
8832;DHT22;4452;50.756;4.472;2023-12-20T06:07:25;5.60;99.90
8832;DHT22;4452;50.756;4.472;2023-12-20T06:09:50;5.60;99.90
8832;DHT22;4452;50.756;4.472;2023-12-20T06:12:16;5.60;99.90
8832;DHT22;4452;50.756;4.472;2023-12-20T06:14:42;5.70;99.90
8832;DHT22;4452;50.756;4.472;2023-12-20T06:17:08;5.70;99.90
8832;DHT22;4452;50.756;4.472;2023-12-20T06:19:33;5.80;99.90
8832;DHT22;4452;50.756;4.472;2023-12-20T06:21:59;5.70;99.90
8832;DHT22;4452;50.756;4.472;2023-12-20T06:24:25;5.70;99.90
8832;DHT22;4452;50.756;4.472;2023-12-20T06:26:53;5.80;99.90
8832;DHT22;4452;50.756;4.472;2023-12-20T06:29:20;5.80;99.90
8832;DHT22;4452;50.756;4.472;2023-12-20T06:31:46;5.80;99.90
8832;DHT22;4452;50.756;4.472;2023-12-20T06:34:11;5.80;99.90
8832;DHT22;4452;50.756;4.472;2023-12-20T06:36:37;5.80;99.90
8832;DHT22;4452;50.756;4.472;2023-12-20T06:39:03;5.80;99.90
8832;DHT22;4452;50.756;4.472;2023-12-20T06:41:30;5.80;99.90
8832;DHT22;4452;50.756;4.472;2023-12-20T06:43:55;5.80;99.90
8832;DHT22;4452;50.756;4.472;2023-12-20T06:46:21;5.80;99.90
8832;DHT22;4452;50.756;4.472;2023-12-20T06:48:47;5.80;99.90
8832;DHT22;4452;50.756;4.472;2023-12-20T06:51:14;5.80;99.90
8832;DHT22;4452;50.756;4.472;2023-12-20T06:53:40;5.80;99.90
8832;DHT22;4452;50.756;4.472;2023-12-20T06:56:06;5.80;99.90
8832;DHT22;4452;50.756;4.472;2023-12-20T06:58:33;5.80;99.90
8832;DHT22;4452;50.756;4.472;2023-12-20T07:00:58;5.70;99.90
8832;DHT22;4452;50.756;4.472;2023-12-20T07:03:24;5.60;99.90
8832;DHT22;4452;50.756;4.472;2023-12-20T07:05:50;5.60;99.90
8832;DHT22;4452;50.756;4.472;2023-12-20T07:08:15;5.60;99.90
8832;DHT22;4452;50.756;4.472;2023-12-20T07:10:41;5.50;99.90
8832;DHT22;4452;50.756;4.472;2023-12-20T07:13:07;5.50;99.90
8832;DHT22;4452;50.756;4.472;2023-12-20T07:15:33;5.50;99.90
8832;DHT22;4452;50.756;4.472;2023-12-20T07:17:59;5.50;99.90
8832;DHT22;4452;50.756;4.472;2023-12-20T07:20:26;5.50;99.90
8832;DHT22;4452;50.756;4.472;2023-12-20T07:22:51;5.40;99.90
8832;DHT22;4452;50.756;4.472;2023-12-20T07:25:17;5.30;99.90
8832;DHT22;4452;50.756;4.472;2023-12-20T07:27:43;5.40;99.90
8832;DHT22;4452;50.756;4.472;2023-12-20T07:30:09;5.20;99.90
8832;DHT22;4452;50.756;4.472;2023-12-20T07:32:35;5.30;99.90
8832;DHT22;4452;50.756;4.472;2023-12-20T07:35:01;5.20;99.90
8832;DHT22;4452;50.756;4.472;2023-12-20T07:37:26;5.00;99.90
8832;DHT22;4452;50.756;4.472;2023-12-20T07:39:52;5.40;99.90
8832;DHT22;4452;50.756;4.472;2023-12-20T07:42:17;5.00;99.90
8832;DHT22;4452;50.756;4.472;2023-12-20T07:44:43;4.90;99.90
8832;DHT22;4452;50.756;4.472;2023-12-20T07:47:09;5.00;99.90
8832;DHT22;4452;50.756;4.472;2023-12-20T07:49:34;4.90;99.90
8832;DHT22;4452;50.756;4.472;2023-12-20T07:52:00;4.90;99.90
8832;DHT22;4452;50.756;4.472;2023-12-20T07:54:26;4.90;99.90
8832;DHT22;4452;50.756;4.472;2023-12-20T07:56:51;4.70;99.90
8832;DHT22;4452;50.756;4.472;2023-12-20T07:59:17;5.20;99.90
8832;DHT22;4452;50.756;4.472;2023-12-20T08:01:43;4.90;99.90
8832;DHT22;4452;50.756;4.472;2023-12-20T08:04:08;4.90;99.90
8832;DHT22;4452;50.756;4.472;2023-12-20T08:06:34;5.50;99.90
8832;DHT22;4452;50.756;4.472;2023-12-20T08:09:00;5.30;99.90
8832;DHT22;4452;50.756;4.472;2023-12-20T08:11:25;5.30;99.90
8832;DHT22;4452;50.756;4.472;2023-12-20T08:13:51;4.90;99.90
8832;DHT22;4452;50.756;4.472;2023-12-20T08:16:17;5.00;99.90
8832;DHT22;4452;50.756;4.472;2023-12-20T08:18:43;5.40;99.90
8832;DHT22;4452;50.756;4.472;2023-12-20T08:21:09;5.20;99.90
8832;DHT22;4452;50.756;4.472;2023-12-20T08:23:35;4.90;99.90
8832;DHT22;4452;50.756;4.472;2023-12-20T08:26:07;5.00;99.90
8832;DHT22;4452;50.756;4.472;2023-12-20T08:28:33;5.10;99.90
8832;DHT22;4452;50.756;4.472;2023-12-20T08:30:59;5.30;99.90
8832;DHT22;4452;50.756;4.472;2023-12-20T08:33:25;5.20;99.90
8832;DHT22;4452;50.756;4.472;2023-12-20T08:35:51;5.30;99.90
8832;DHT22;4452;50.756;4.472;2023-12-20T08:38:16;5.10;99.90
8832;DHT22;4452;50.756;4.472;2023-12-20T08:40:43;5.20;99.90
8832;DHT22;4452;50.756;4.472;2023-12-20T08:43:09;5.20;99.90
8832;DHT22;4452;50.756;4.472;2023-12-20T08:45:35;5.30;99.90
8832;DHT22;4452;50.756;4.472;2023-12-20T08:48:01;5.20;99.90
8832;DHT22;4452;50.756;4.472;2023-12-20T08:50:26;5.30;99.90
8832;DHT22;4452;50.756;4.472;2023-12-20T08:52:52;5.30;99.90
8832;DHT22;4452;50.756;4.472;2023-12-20T08:55:19;5.30;99.90
8832;DHT22;4452;50.756;4.472;2023-12-20T08:57:45;5.50;99.90
8832;DHT22;4452;50.756;4.472;2023-12-20T09:00:11;5.40;99.90
8832;DHT22;4452;50.756;4.472;2023-12-20T09:02:37;5.50;99.90
8832;DHT22;4452;50.756;4.472;2023-12-20T09:05:03;5.50;99.90
8832;DHT22;4452;50.756;4.472;2023-12-20T09:07:29;5.50;99.90
8832;DHT22;4452;50.756;4.472;2023-12-20T09:09:58;5.50;99.90
8832;DHT22;4452;50.756;4.472;2023-12-20T09:12:24;5.60;99.90
8832;DHT22;4452;50.756;4.472;2023-12-20T09:14:50;5.70;99.90
8832;DHT22;4452;50.756;4.472;2023-12-20T09:17:17;5.70;99.90
8832;DHT22;4452;50.756;4.472;2023-12-20T09:19:44;5.70;99.90
8832;DHT22;4452;50.756;4.472;2023-12-20T09:22:10;5.80;99.90
8832;DHT22;4452;50.756;4.472;2023-12-20T09:24:36;5.90;99.90
8832;DHT22;4452;50.756;4.472;2023-12-20T09:27:02;5.90;99.90
8832;DHT22;4452;50.756;4.472;2023-12-20T09:29:28;5.90;99.90
8832;DHT22;4452;50.756;4.472;2023-12-20T09:31:54;6.00;99.90
8832;DHT22;4452;50.756;4.472;2023-12-20T09:34:20;6.10;99.90
8832;DHT22;4452;50.756;4.472;2023-12-20T09:36:46;6.20;99.90
8832;DHT22;4452;50.756;4.472;2023-12-20T09:39:19;6.20;99.90
8832;DHT22;4452;50.756;4.472;2023-12-20T09:41:51;6.30;99.90
8832;DHT22;4452;50.756;4.472;2023-12-20T09:44:21;6.40;99.90
8832;DHT22;4452;50.756;4.472;2023-12-20T09:46:50;6.50;99.90
8832;DHT22;4452;50.756;4.472;2023-12-20T09:49:18;6.50;99.90
8832;DHT22;4452;50.756;4.472;2023-12-20T09:51:46;6.60;99.90
8832;DHT22;4452;50.756;4.472;2023-12-20T09:54:14;6.70;99.90
8832;DHT22;4452;50.756;4.472;2023-12-20T09:56:39;6.70;99.90
8832;DHT22;4452;50.756;4.472;2023-12-20T09:59:05;6.80;99.90
8832;DHT22;4452;50.756;4.472;2023-12-20T10:01:31;6.80;99.90
8832;DHT22;4452;50.756;4.472;2023-12-20T10:03:57;6.90;99.90
8832;DHT22;4452;50.756;4.472;2023-12-20T10:06:24;6.90;99.90
8832;DHT22;4452;50.756;4.472;2023-12-20T10:08:50;6.90;99.90
8832;DHT22;4452;50.756;4.472;2023-12-20T10:11:15;7.00;99.90
8832;DHT22;4452;50.756;4.472;2023-12-20T10:13:43;7.00;99.90
8832;DHT22;4452;50.756;4.472;2023-12-20T10:16:08;7.00;99.90
8832;DHT22;4452;50.756;4.472;2023-12-20T10:18:34;7.10;99.90
8832;DHT22;4452;50.756;4.472;2023-12-20T10:21:03;7.10;99.90
8832;DHT22;4452;50.756;4.472;2023-12-20T10:23:30;7.10;99.90
8832;DHT22;4452;50.756;4.472;2023-12-20T10:25:59;7.10;99.90
8832;DHT22;4452;50.756;4.472;2023-12-20T10:28:26;7.00;99.90
8832;DHT22;4452;50.756;4.472;2023-12-20T10:30:53;7.10;99.90
8832;DHT22;4452;50.756;4.472;2023-12-20T10:33:26;7.10;99.90
8832;DHT22;4452;50.756;4.472;2023-12-20T10:35:52;7.20;99.90
8832;DHT22;4452;50.756;4.472;2023-12-20T10:38:19;7.20;99.90
8832;DHT22;4452;50.756;4.472;2023-12-20T10:40:48;7.20;99.90
8832;DHT22;4452;50.756;4.472;2023-12-20T10:43:15;7.20;99.90
8832;DHT22;4452;50.756;4.472;2023-12-20T10:45:42;7.20;99.90
8832;DHT22;4452;50.756;4.472;2023-12-20T10:48:10;7.30;99.90
8832;DHT22;4452;50.756;4.472;2023-12-20T10:50:36;7.20;99.90
8832;DHT22;4452;50.756;4.472;2023-12-20T10:53:04;7.30;99.90
8832;DHT22;4452;50.756;4.472;2023-12-20T10:55:30;7.30;99.90
8832;DHT22;4452;50.756;4.472;2023-12-20T10:58:01;7.30;99.90
8832;DHT22;4452;50.756;4.472;2023-12-20T11:00:29;7.40;99.90
8832;DHT22;4452;50.756;4.472;2023-12-20T11:03:01;7.40;99.90
8832;DHT22;4452;50.756;4.472;2023-12-20T11:05:46;7.40;99.90
8832;DHT22;4452;50.756;4.472;2023-12-20T11:08:13;7.40;99.90
8832;DHT22;4452;50.756;4.472;2023-12-20T11:10:54;7.40;99.90
8832;DHT22;4452;50.756;4.472;2023-12-20T11:13:34;7.40;99.90
8832;DHT22;4452;50.756;4.472;2023-12-20T11:16:00;7.40;99.90
8832;DHT22;4452;50.756;4.472;2023-12-20T11:18:32;7.40;99.90
8832;DHT22;4452;50.756;4.472;2023-12-20T11:21:02;7.50;99.90
8832;DHT22;4452;50.756;4.472;2023-12-20T11:23:30;7.50;99.90
8832;DHT22;4452;50.756;4.472;2023-12-20T11:25:57;7.50;99.90
8832;DHT22;4452;50.756;4.472;2023-12-20T11:28:26;7.50;99.90
8832;DHT22;4452;50.756;4.472;2023-12-20T11:30:53;7.50;99.90
8832;DHT22;4452;50.756;4.472;2023-12-20T11:33:30;7.60;99.90
8832;DHT22;4452;50.756;4.472;2023-12-20T11:35:57;7.60;99.90
8832;DHT22;4452;50.756;4.472;2023-12-20T11:38:23;7.70;99.90
8832;DHT22;4452;50.756;4.472;2023-12-20T11:40:49;7.60;99.90
8832;DHT22;4452;50.756;4.472;2023-12-20T11:43:44;7.60;99.90
8832;DHT22;4452;50.756;4.472;2023-12-20T11:46:09;7.60;99.90
8832;DHT22;4452;50.756;4.472;2023-12-20T11:48:39;7.70;99.90
8832;DHT22;4452;50.756;4.472;2023-12-20T11:51:12;7.60;99.90
8832;DHT22;4452;50.756;4.472;2023-12-20T11:53:39;7.60;99.90
8832;DHT22;4452;50.756;4.472;2023-12-20T11:56:08;7.60;99.90
8832;DHT22;4452;50.756;4.472;2023-12-20T11:58:34;7.60;99.90
8832;DHT22;4452;50.756;4.472;2023-12-20T12:01:01;7.70;99.90
8832;DHT22;4452;50.756;4.472;2023-12-20T12:03:32;7.70;99.90
8832;DHT22;4452;50.756;4.472;2023-12-20T12:05:59;7.70;99.90
8832;DHT22;4452;50.756;4.472;2023-12-20T12:08:27;7.70;99.90
8832;DHT22;4452;50.756;4.472;2023-12-20T12:10:55;7.70;99.90
8832;DHT22;4452;50.756;4.472;2023-12-20T12:13:24;7.70;99.90
8832;DHT22;4452;50.756;4.472;2023-12-20T12:15:54;7.70;99.90
8832;DHT22;4452;50.756;4.472;2023-12-20T12:18:23;7.80;99.90
8832;DHT22;4452;50.756;4.472;2023-12-20T12:20:51;7.80;99.90
8832;DHT22;4452;50.756;4.472;2023-12-20T12:23:27;7.80;99.90
8832;DHT22;4452;50.756;4.472;2023-12-20T12:25:55;7.80;99.90
8832;DHT22;4452;50.756;4.472;2023-12-20T12:28:26;7.80;99.90
8832;DHT22;4452;50.756;4.472;2023-12-20T12:30:59;7.80;99.90
8832;DHT22;4452;50.756;4.472;2023-12-20T12:33:26;7.80;99.90
8832;DHT22;4452;50.756;4.472;2023-12-20T12:35:52;7.90;99.90
8832;DHT22;4452;50.756;4.472;2023-12-20T12:38:21;7.90;99.90
8832;DHT22;4452;50.756;4.472;2023-12-20T12:40:47;7.90;99.90
8832;DHT22;4452;50.756;4.472;2023-12-20T12:43:13;8.00;99.90
8832;DHT22;4452;50.756;4.472;2023-12-20T12:45:39;8.00;99.90
8832;DHT22;4452;50.756;4.472;2023-12-20T12:48:05;8.00;99.90
8832;DHT22;4452;50.756;4.472;2023-12-20T12:50:32;8.10;99.90
8832;DHT22;4452;50.756;4.472;2023-12-20T12:53:00;8.00;99.90
8832;DHT22;4452;50.756;4.472;2023-12-20T12:55:27;8.00;99.90
8832;DHT22;4452;50.756;4.472;2023-12-20T12:57:55;8.00;99.90
8832;DHT22;4452;50.756;4.472;2023-12-20T13:00:23;7.90;99.90
8832;DHT22;4452;50.756;4.472;2023-12-20T13:02:51;7.90;99.90
8832;DHT22;4452;50.756;4.472;2023-12-20T13:05:18;7.90;99.90
8832;DHT22;4452;50.756;4.472;2023-12-20T13:07:48;8.00;99.90
8832;DHT22;4452;50.756;4.472;2023-12-20T13:10:15;8.00;99.90
8832;DHT22;4452;50.756;4.472;2023-12-20T13:12:43;8.00;99.90
8832;DHT22;4452;50.756;4.472;2023-12-20T13:15:09;8.00;99.90
8832;DHT22;4452;50.756;4.472;2023-12-20T13:17:34;8.10;99.90
8832;DHT22;4452;50.756;4.472;2023-12-20T13:20:00;8.10;99.90
8832;DHT22;4452;50.756;4.472;2023-12-20T13:22:26;8.10;99.90
8832;DHT22;4452;50.756;4.472;2023-12-20T13:24:52;8.10;99.90
8832;DHT22;4452;50.756;4.472;2023-12-20T13:27:17;8.10;99.90
8832;DHT22;4452;50.756;4.472;2023-12-20T13:29:44;8.10;99.90
8832;DHT22;4452;50.756;4.472;2023-12-20T13:32:12;8.10;99.90
8832;DHT22;4452;50.756;4.472;2023-12-20T13:34:41;8.20;99.90
8832;DHT22;4452;50.756;4.472;2023-12-20T13:37:11;8.20;99.90
8832;DHT22;4452;50.756;4.472;2023-12-20T13:39:43;8.20;99.90
8832;DHT22;4452;50.756;4.472;2023-12-20T13:42:14;8.20;99.90
8832;DHT22;4452;50.756;4.472;2023-12-20T13:44:43;8.30;99.90
8832;DHT22;4452;50.756;4.472;2023-12-20T13:47:11;8.30;99.90
8832;DHT22;4452;50.756;4.472;2023-12-20T13:49:39;8.40;99.90
8832;DHT22;4452;50.756;4.472;2023-12-20T13:52:06;8.40;99.90
8832;DHT22;4452;50.756;4.472;2023-12-20T13:54:35;8.40;99.90
8832;DHT22;4452;50.756;4.472;2023-12-20T13:57:02;8.40;99.90
8832;DHT22;4452;50.756;4.472;2023-12-20T13:59:29;8.40;99.90
8832;DHT22;4452;50.756;4.472;2023-12-20T14:01:55;8.40;99.90
8832;DHT22;4452;50.756;4.472;2023-12-20T14:04:22;8.50;99.90
8832;DHT22;4452;50.756;4.472;2023-12-20T14:06:48;8.50;99.90
8832;DHT22;4452;50.756;4.472;2023-12-20T14:09:14;8.50;99.90
8832;DHT22;4452;50.756;4.472;2023-12-20T14:11:40;8.50;99.90
8832;DHT22;4452;50.756;4.472;2023-12-20T14:14:09;8.60;99.90
8832;DHT22;4452;50.756;4.472;2023-12-20T14:16:36;8.60;99.90
8832;DHT22;4452;50.756;4.472;2023-12-20T14:19:02;8.60;99.90
8832;DHT22;4452;50.756;4.472;2023-12-20T14:21:29;8.60;99.90
8832;DHT22;4452;50.756;4.472;2023-12-20T14:23:54;8.70;99.90
8832;DHT22;4452;50.756;4.472;2023-12-20T14:26:21;8.60;99.90
8832;DHT22;4452;50.756;4.472;2023-12-20T14:28:48;8.70;99.90
8832;DHT22;4452;50.756;4.472;2023-12-20T14:31:19;8.70;99.90
8832;DHT22;4452;50.756;4.472;2023-12-20T14:33:47;8.70;99.90
8832;DHT22;4452;50.756;4.472;2023-12-20T14:36:18;8.70;99.90
8832;DHT22;4452;50.756;4.472;2023-12-20T14:38:50;8.80;99.90
8832;DHT22;4452;50.756;4.472;2023-12-20T14:41:18;8.80;99.90
8832;DHT22;4452;50.756;4.472;2023-12-20T14:43:47;8.80;99.90
8832;DHT22;4452;50.756;4.472;2023-12-20T14:46:15;8.80;99.90
8832;DHT22;4452;50.756;4.472;2023-12-20T14:48:44;8.80;99.90
8832;DHT22;4452;50.756;4.472;2023-12-20T14:51:12;8.90;99.90
8832;DHT22;4452;50.756;4.472;2023-12-20T14:53:40;8.90;99.90
8832;DHT22;4452;50.756;4.472;2023-12-20T14:56:08;8.90;99.90
8832;DHT22;4452;50.756;4.472;2023-12-20T14:58:34;8.90;99.90
8832;DHT22;4452;50.756;4.472;2023-12-20T15:01:01;8.90;99.90
8832;DHT22;4452;50.756;4.472;2023-12-20T15:03:27;8.90;99.90
8832;DHT22;4452;50.756;4.472;2023-12-20T15:05:54;8.90;99.90
8832;DHT22;4452;50.756;4.472;2023-12-20T15:08:20;8.90;99.90
8832;DHT22;4452;50.756;4.472;2023-12-20T15:10:46;8.90;99.90
8832;DHT22;4452;50.756;4.472;2023-12-20T15:13:12;8.90;99.90
8832;DHT22;4452;50.756;4.472;2023-12-20T15:15:38;8.90;99.90
8832;DHT22;4452;50.756;4.472;2023-12-20T15:18:04;8.90;99.90
8832;DHT22;4452;50.756;4.472;2023-12-20T15:20:29;9.00;99.90
8832;DHT22;4452;50.756;4.472;2023-12-20T15:22:55;9.00;99.90
8832;DHT22;4452;50.756;4.472;2023-12-20T15:25:24;9.00;99.90
8832;DHT22;4452;50.756;4.472;2023-12-20T15:27:50;9.00;99.90
8832;DHT22;4452;50.756;4.472;2023-12-20T15:30:21;9.00;99.90
8832;DHT22;4452;50.756;4.472;2023-12-20T15:32:48;9.00;99.90
8832;DHT22;4452;50.756;4.472;2023-12-20T15:35:16;9.00;99.90
8832;DHT22;4452;50.756;4.472;2023-12-20T15:37:44;9.00;99.90
8832;DHT22;4452;50.756;4.472;2023-12-20T15:40:13;9.00;99.90
8832;DHT22;4452;50.756;4.472;2023-12-20T15:42:43;9.00;99.90
8832;DHT22;4452;50.756;4.472;2023-12-20T15:45:10;9.00;99.90
8832;DHT22;4452;50.756;4.472;2023-12-20T15:47:36;9.10;99.90
8832;DHT22;4452;50.756;4.472;2023-12-20T15:50:03;9.10;99.90
8832;DHT22;4452;50.756;4.472;2023-12-20T15:52:29;9.10;99.90
8832;DHT22;4452;50.756;4.472;2023-12-20T15:54:55;9.20;99.90
8832;DHT22;4452;50.756;4.472;2023-12-20T15:57:22;9.20;99.90
8832;DHT22;4452;50.756;4.472;2023-12-20T15:59:47;9.20;99.90
8832;DHT22;4452;50.756;4.472;2023-12-20T16:02:15;9.10;99.90
8832;DHT22;4452;50.756;4.472;2023-12-20T16:04:41;9.10;99.90
8832;DHT22;4452;50.756;4.472;2023-12-20T16:07:06;9.10;99.90
8832;DHT22;4452;50.756;4.472;2023-12-20T16:09:32;9.10;99.90
8832;DHT22;4452;50.756;4.472;2023-12-20T16:11:58;9.20;99.90
8832;DHT22;4452;50.756;4.472;2023-12-20T16:14:23;9.20;99.90